createdAt,value
2016-12-09T00:00:29.015Z,1019.02
2016-12-09T00:01:39.309Z,1019.02
2016-12-09T00:02:48.954Z,1019.03
2016-12-09T00:03:59.226Z,1019.05
2016-12-09T00:05:09.517Z,1019.05
2016-12-09T00:06:19.493Z,1019.09
2016-12-09T00:07:29.760Z,1019.09
2016-12-09T00:08:39.712Z,1019.08
2016-12-09T00:09:49.680Z,1019.06
2016-12-09T00:10:59.334Z,1019.08
2016-12-09T00:12:09.606Z,1019.08
2016-12-09T00:13:19.865Z,1019.1
2016-12-09T00:14:30.144Z,1019.08
2016-12-09T00:15:40.403Z,1019
2016-12-09T00:16:50.669Z,1018.99
2016-12-09T00:18:00.627Z,1018.96
2016-12-09T00:19:10.582Z,1018.97
2016-12-09T00:20:20.841Z,1018.94
2016-12-09T00:21:31.130Z,1018.9
2016-12-09T00:22:41.411Z,1018.88
2016-12-09T00:23:51.094Z,1018.88
2016-12-09T00:25:00.749Z,1018.8
2016-12-09T00:26:11.011Z,1018.78
2016-12-09T00:27:20.361Z,1018.75
2016-12-09T00:28:30.639Z,1018.73
2016-12-09T00:29:40.601Z,1018.73
2016-12-09T00:30:50.873Z,1018.67
2016-12-09T00:32:01.129Z,1018.69
2016-12-09T00:33:11.094Z,1018.68
2016-12-09T00:34:20.750Z,1018.62
2016-12-09T00:35:31.033Z,1018.58
2016-12-09T00:36:40.678Z,1018.59
2016-12-09T00:37:51.241Z,1018.59
2016-12-09T00:39:01.199Z,1018.57
2016-12-09T00:40:11.164Z,1018.52
2016-12-09T00:41:21.462Z,1018.48
2016-12-09T00:42:31.416Z,1018.37
2016-12-09T00:43:41.368Z,1018.37
2016-12-09T00:44:51.331Z,1018.32
2016-12-09T00:46:00.978Z,1018.33
2016-12-09T00:47:11.282Z,1018.36
2016-12-09T00:48:21.561Z,1018.38
2016-12-09T00:49:31.550Z,1018.31
2016-12-09T00:50:41.521Z,1018.25
2016-12-09T00:51:50.869Z,1018.34
2016-12-09T00:53:01.141Z,1018.39
2016-12-09T00:54:10.788Z,1018.36
2016-12-09T00:55:21.048Z,1018.41
2016-12-09T00:56:30.705Z,1018.33
2016-12-09T00:57:40.362Z,1018.34
2016-12-09T00:58:50.625Z,1018.37
2016-12-09T01:00:00.278Z,1018.38
2016-12-09T01:01:10.539Z,1018.41
2016-12-09T01:02:20.510Z,1018.46
2016-12-09T01:03:30.776Z,1018.45
2016-12-09T01:04:40.731Z,1018.46
2016-12-09T01:05:50.990Z,1018.47
2016-12-09T01:07:01.570Z,1018.45
2016-12-09T01:08:11.845Z,1018.44
2016-12-09T01:09:21.803Z,1018.49
2016-12-09T01:10:31.451Z,1018.47
2016-12-09T01:11:41.410Z,1018.45
2016-12-09T01:12:51.665Z,1018.46
2016-12-09T01:14:01.941Z,1018.46
2016-12-09T01:15:12.206Z,1018.5
2016-12-09T01:16:22.469Z,1018.53
2016-12-09T01:17:32.738Z,1018.53
2016-12-09T01:18:43.310Z,1018.51
2016-12-09T01:19:53.589Z,1018.52
2016-12-09T01:21:03.249Z,1018.54
2016-12-09T01:22:13.506Z,1018.5
2016-12-09T01:23:23.467Z,1018.56
2016-12-09T01:24:33.422Z,1018.57
2016-12-09T01:25:42.766Z,1018.66
2016-12-09T01:26:52.724Z,1018.67
2016-12-09T01:28:02.679Z,1018.62
2016-12-09T01:29:12.951Z,1018.63
2016-12-09T01:30:22.923Z,1018.67
2016-12-09T01:31:33.366Z,1018.68
2016-12-09T01:32:43.329Z,1018.66
2016-12-09T01:33:53.290Z,1018.64
2016-12-09T01:35:03.563Z,1018.64
2016-12-09T01:36:13.508Z,1018.53
2016-12-09T01:37:23.473Z,1018.53
2016-12-09T01:38:33.437Z,1018.52
2016-12-09T01:39:43.703Z,1018.49
2016-12-09T01:40:53.658Z,1018.45
2016-12-09T01:42:04.231Z,1018.43
2016-12-09T01:43:14.496Z,1018.47
2016-12-09T01:44:24.765Z,1018.46
2016-12-09T01:45:35.035Z,1018.49
2016-12-09T01:46:45.303Z,1018.51
2016-12-09T01:47:55.862Z,1018.55
2016-12-09T01:49:06.131Z,1018.56
2016-12-09T01:50:16.083Z,1018.56
2016-12-09T01:51:26.362Z,1018.55
2016-12-09T01:52:36.631Z,1018.55
2016-12-09T01:53:46.576Z,1018.54
2016-12-09T01:54:56.855Z,1018.61
2016-12-09T01:56:07.146Z,1018.67
2016-12-09T01:57:17.104Z,1018.65
2016-12-09T01:58:27.059Z,1018.68
2016-12-09T01:59:37.319Z,1018.64
2016-12-09T02:00:47.293Z,1018.67
2016-12-09T02:01:57.245Z,1018.68
2016-12-09T02:03:07.512Z,1018.57
2016-12-09T02:04:17.466Z,1018.58
2016-12-09T02:05:28.045Z,1018.61
2016-12-09T02:06:38.317Z,1018.66
2016-12-09T02:07:48.292Z,1018.66
2016-12-09T02:08:58.566Z,1018.66
2016-12-09T02:10:08.839Z,1018.59
2016-12-09T02:11:19.137Z,1018.56
2016-12-09T02:12:29.402Z,1018.52
2016-12-09T02:13:39.673Z,1018.53
2016-12-09T02:14:49.625Z,1018.5
2016-12-09T02:15:59.881Z,1018.58
2016-12-09T02:17:10.463Z,1018.54
2016-12-09T02:18:20.729Z,1018.55
2016-12-09T02:19:30.989Z,1018.57
2016-12-09T02:20:40.956Z,1018.54
2016-12-09T02:21:50.931Z,1018.53
2016-12-09T02:23:01.501Z,1018.51
2016-12-09T02:24:11.760Z,1018.49
2016-12-09T02:25:21.407Z,1018.44
2016-12-09T02:26:31.666Z,1018.47
2016-12-09T02:27:41.929Z,1018.49
2016-12-09T02:28:52.188Z,1018.47
2016-12-09T02:30:02.160Z,1018.5
2016-12-09T02:31:11.497Z,1018.49
2016-12-09T02:32:20.835Z,1018.53
2016-12-09T02:33:30.796Z,1018.5
2016-12-09T02:34:41.366Z,1018.54
2016-12-09T02:35:51.631Z,1018.57
2016-12-09T02:37:01.599Z,1018.58
2016-12-09T02:38:11.862Z,1018.6
2016-12-09T02:39:22.125Z,1018.6
2016-12-09T02:40:32.694Z,1018.6
2016-12-09T02:41:42.338Z,1018.61
2016-12-09T02:42:52.598Z,1018.59
2016-12-09T02:44:02.863Z,1018.55
2016-12-09T02:45:13.141Z,1018.62
2016-12-09T02:46:23.087Z,1018.58
2016-12-09T02:47:33.362Z,1018.64
2016-12-09T02:48:43.324Z,1018.59
2016-12-09T02:49:53.584Z,1018.65
2016-12-09T02:51:03.859Z,1018.63
2016-12-09T02:52:13.836Z,1018.63
2016-12-09T02:53:23.785Z,1018.65
2016-12-09T02:54:34.085Z,1018.65
2016-12-09T02:55:44.335Z,1018.65
2016-12-09T02:56:54.614Z,1018.64
2016-12-09T02:58:05.183Z,1018.65
2016-12-09T02:59:15.456Z,1018.62
2016-12-09T03:00:25.420Z,1018.67
2016-12-09T03:01:35.695Z,1018.62
2016-12-09T03:02:45.644Z,1018.57
2016-12-09T03:03:56.201Z,1018.55
2016-12-09T03:05:06.459Z,1018.52
2016-12-09T03:06:16.114Z,1018.47
2016-12-09T03:07:26.066Z,1018.44
2016-12-09T03:08:36.012Z,1018.45
2016-12-09T03:09:46.287Z,1018.4
2016-12-09T03:10:55.941Z,1018.38
2016-12-09T03:12:06.215Z,1018.42
2016-12-09T03:13:16.482Z,1018.43
2016-12-09T03:14:26.437Z,1018.44
2016-12-09T03:15:37.007Z,1018.44
2016-12-09T03:16:46.654Z,1018.44
2016-12-09T03:17:56.929Z,1018.43
2016-12-09T03:19:06.581Z,1018.4
2016-12-09T03:20:16.539Z,1018.34
2016-12-09T03:21:27.105Z,1018.33
2016-12-09T03:22:36.780Z,1018.35
2016-12-09T03:23:47.045Z,1018.3
2016-12-09T03:24:57.003Z,1018.42
2016-12-09T03:26:06.651Z,1018.42
2016-12-09T03:27:16.910Z,1018.37
2016-12-09T03:28:27.173Z,1018.35
2016-12-09T03:29:36.814Z,1018.31
2016-12-09T03:30:46.767Z,1018.35
2016-12-09T03:31:56.724Z,1018.28
2016-12-09T03:33:07.282Z,1018.3
2016-12-09T03:34:17.237Z,1018.32
2016-12-09T03:35:27.535Z,1018.31
2016-12-09T03:36:37.803Z,1018.36
2016-12-09T03:37:47.755Z,1018.37
2016-12-09T03:38:57.707Z,1018.43
2016-12-09T03:40:07.995Z,1018.39
2016-12-09T03:41:17.646Z,1018.41
2016-12-09T03:42:27.908Z,1018.37
2016-12-09T03:43:37.556Z,1018.38
2016-12-09T03:44:48.116Z,1018.38
2016-12-09T03:45:58.088Z,1018.41
2016-12-09T03:47:08.043Z,1018.43
2016-12-09T03:48:18.309Z,1018.44
2016-12-09T03:49:27.954Z,1018.43
2016-12-09T03:50:37.905Z,1018.38
2016-12-09T03:51:48.178Z,1018.38
2016-12-09T03:52:58.453Z,1018.39
2016-12-09T03:54:08.730Z,1018.36
2016-12-09T03:55:19.003Z,1018.43
2016-12-09T03:56:29.570Z,1018.43
2016-12-09T03:57:39.841Z,1018.49
2016-12-09T03:58:49.796Z,1018.53
2016-12-09T03:59:59.757Z,1018.57
2016-12-09T04:01:09.715Z,1018.59
2016-12-09T04:02:19.987Z,1018.62
2016-12-09T04:03:29.942Z,1018.54
2016-12-09T04:04:39.279Z,1018.55
2016-12-09T04:05:49.247Z,1018.53
2016-12-09T04:06:59.208Z,1018.54
2016-12-09T04:08:09.186Z,1018.52
2016-12-09T04:09:19.182Z,1018.51
2016-12-09T04:10:29.134Z,1018.54
2016-12-09T04:11:39.397Z,1018.52
2016-12-09T04:12:49.678Z,1018.53
2016-12-09T04:13:59.937Z,1018.5
2016-12-09T04:15:10.202Z,1018.51
2016-12-09T04:16:20.168Z,1018.46
2016-12-09T04:17:30.142Z,1018.45
2016-12-09T04:18:40.417Z,1018.43
2016-12-09T04:19:51.342Z,1018.41
2016-12-09T04:21:01.294Z,1018.42
2016-12-09T04:22:10.964Z,1018.48
2016-12-09T04:23:21.245Z,1018.5
2016-12-09T04:24:31.509Z,1018.51
2016-12-09T04:25:42.113Z,1018.53
2016-12-09T04:26:52.414Z,1018.57
2016-12-09T04:28:02.688Z,1018.6
2016-12-09T04:29:12.662Z,1018.67
2016-12-09T04:30:22.305Z,1018.73
2016-12-09T04:31:32.289Z,1018.73
2016-12-09T04:32:42.254Z,1018.72
2016-12-09T04:33:51.907Z,1018.72
2016-12-09T04:35:02.173Z,1018.74
2016-12-09T04:36:12.138Z,1018.74
2016-12-09T04:37:22.710Z,1018.64
2016-12-09T04:38:32.675Z,1018.65
2016-12-09T04:39:42.634Z,1018.64
2016-12-09T04:40:52.585Z,1018.63
2016-12-09T04:42:02.547Z,1018.6
2016-12-09T04:43:12.803Z,1018.58
2016-12-09T04:44:23.065Z,1018.53
2016-12-09T04:45:32.710Z,1018.43
2016-12-09T04:46:42.351Z,1018.32
2016-12-09T04:47:52.608Z,1018.24
2016-12-09T04:49:03.178Z,1018.23
2016-12-09T04:50:13.145Z,1018.21
2016-12-09T04:51:23.407Z,1018.21
2016-12-09T04:52:33.363Z,1018.18
2016-12-09T04:53:43.635Z,1018.2
2016-12-09T04:54:54.198Z,1018.21
2016-12-09T04:56:04.453Z,1018.22
2016-12-09T04:57:14.108Z,1018.24
2016-12-09T04:58:24.073Z,1018.33
2016-12-09T04:59:34.339Z,1018.29
2016-12-09T05:00:44.300Z,1018.3
2016-12-09T05:01:54.570Z,1018.32
2016-12-09T05:03:04.524Z,1018.34
2016-12-09T05:04:14.787Z,1018.35
2016-12-09T05:05:24.738Z,1018.36
2016-12-09T05:06:35.001Z,1018.41
2016-12-09T05:07:44.975Z,1018.45
2016-12-09T05:08:54.940Z,1018.5
2016-12-09T05:10:05.199Z,1018.55
2016-12-09T05:11:15.456Z,1018.52
2016-12-09T05:12:26.027Z,1018.52
2016-12-09T05:13:35.989Z,1018.51
2016-12-09T05:14:45.641Z,1018.46
2016-12-09T05:15:55.589Z,1018.45
2016-12-09T05:17:05.237Z,1018.45
2016-12-09T05:18:15.499Z,1018.36
2016-12-09T05:19:25.752Z,1018.36
2016-12-09T05:20:35.410Z,1018.38
2016-12-09T05:21:45.705Z,1018.36
2016-12-09T05:22:55.973Z,1018.38
2016-12-09T05:24:06.232Z,1018.38
2016-12-09T05:25:16.194Z,1018.39
2016-12-09T05:26:26.450Z,1018.39
2016-12-09T05:27:36.400Z,1018.34
2016-12-09T05:28:46.688Z,1018.37
2016-12-09T05:29:56.949Z,1018.36
2016-12-09T05:31:07.225Z,1018.37
2016-12-09T05:32:17.487Z,1018.32
2016-12-09T05:33:27.750Z,1018.33
2016-12-09T05:34:38.028Z,1018.3
2016-12-09T05:35:47.667Z,1018.29
2016-12-09T05:36:57.936Z,1018.32
2016-12-09T05:38:08.204Z,1018.34
2016-12-09T05:39:17.862Z,1018.4
2016-12-09T05:40:27.504Z,1018.36
2016-12-09T05:41:38.087Z,1018.37
2016-12-09T05:42:48.051Z,1018.31
2016-12-09T05:43:58.013Z,1018.26
2016-12-09T05:45:07.997Z,1018.28
2016-12-09T05:46:18.265Z,1018.23
2016-12-09T05:47:28.832Z,1018.22
2016-12-09T05:48:38.474Z,1018.22
2016-12-09T05:49:48.743Z,1018.21
2016-12-09T05:50:59.012Z,1018.2
2016-12-09T05:52:09.277Z,1018.21
2016-12-09T05:53:19.844Z,1018.18
2016-12-09T05:54:30.110Z,1018.14
2016-12-09T05:55:40.090Z,1018.17
2016-12-09T05:56:50.359Z,1018.16
2016-12-09T05:58:00.621Z,1018.15
2016-12-09T05:59:10.871Z,1018.1
2016-12-09T06:00:21.143Z,1018.13
2016-12-09T06:01:31.431Z,1018.13
2016-12-09T06:02:41.704Z,1018.13
2016-12-09T06:03:51.352Z,1018.08
2016-12-09T06:05:01.614Z,1018.07
2016-12-09T06:06:11.575Z,1018.07
2016-12-09T06:07:21.842Z,1018.03
2016-12-09T06:08:31.797Z,1018.03
2016-12-09T06:09:41.758Z,1018.04
2016-12-09T06:10:52.011Z,1018.01
2016-12-09T06:12:02.312Z,1017.97
2016-12-09T06:13:12.616Z,1017.96
2016-12-09T06:14:21.985Z,1018.01
2016-12-09T06:15:32.292Z,1017.98
2016-12-09T06:16:42.865Z,1018.03
2016-12-09T06:17:53.131Z,1017.99
2016-12-09T06:19:03.093Z,1017.98
2016-12-09T06:20:13.365Z,1017.94
2016-12-09T06:21:23.313Z,1017.94
2016-12-09T06:22:33.566Z,1017.95
2016-12-09T06:23:43.519Z,1017.95
2016-12-09T06:24:53.483Z,1017.9
2016-12-09T06:26:03.439Z,1017.93
2016-12-09T06:27:13.736Z,1017.95
2016-12-09T06:28:24.008Z,1017.97
2016-12-09T06:29:33.982Z,1017.96
2016-12-09T06:30:43.944Z,1017.98
2016-12-09T06:31:54.225Z,1017.98
2016-12-09T06:33:04.501Z,1017.99
2016-12-09T06:34:14.759Z,1017.97
2016-12-09T06:35:24.724Z,1018.08
2016-12-09T06:36:34.609Z,1018.05
2016-12-09T06:37:44.907Z,1018.05
2016-12-09T06:38:54.574Z,1018.01
2016-12-09T06:40:04.857Z,1018.06
2016-12-09T06:41:14.846Z,1018.05
2016-12-09T06:42:25.128Z,1018.09
2016-12-09T06:43:34.792Z,1018.11
2016-12-09T06:44:44.135Z,1018.12
2016-12-09T06:45:54.728Z,1018.08
2016-12-09T06:47:04.836Z,1018.08
2016-12-09T06:48:15.120Z,1018.08
2016-12-09T06:49:24.773Z,1018.11
2016-12-09T06:50:35.073Z,1018.1
2016-12-09T06:51:45.681Z,1018.16
2016-12-09T06:52:55.956Z,1018.13
2016-12-09T06:54:06.231Z,1018.11
2016-12-09T06:55:16.516Z,1018.08
2016-12-09T06:56:26.481Z,1018.12
2016-12-09T06:57:36.747Z,1018.15
2016-12-09T06:58:46.707Z,1018.15
2016-12-09T06:59:56.353Z,1018.1
2016-12-09T07:01:06.622Z,1018.16
2016-12-09T07:02:16.897Z,1018.21
2016-12-09T07:03:27.165Z,1018.21
2016-12-09T07:04:37.114Z,1018.24
2016-12-09T07:05:47.085Z,1018.27
2016-12-09T07:06:57.030Z,1018.32
2016-12-09T07:08:06.994Z,1018.33
2016-12-09T07:09:17.594Z,1018.4
2016-12-09T07:10:27.860Z,1018.41
2016-12-09T07:11:38.145Z,1018.42
2016-12-09T07:12:48.410Z,1018.44
2016-12-09T07:13:58.388Z,1018.49
2016-12-09T07:15:08.374Z,1018.47
2016-12-09T07:16:18.654Z,1018.5
2016-12-09T07:17:28.927Z,1018.53
2016-12-09T07:18:38.883Z,1018.53
2016-12-09T07:19:48.857Z,1018.61
2016-12-09T07:20:59.414Z,1018.63
2016-12-09T07:22:09.072Z,1018.59
2016-12-09T07:23:19.365Z,1018.61
2016-12-09T07:24:29.330Z,1018.64
2016-12-09T07:25:39.289Z,1018.65
2016-12-09T07:26:49.576Z,1018.63
2016-12-09T07:27:59.570Z,1018.67
2016-12-09T07:29:09.849Z,1018.71
2016-12-09T07:30:19.825Z,1018.67
2016-12-09T07:31:29.794Z,1018.67
2016-12-09T07:32:40.066Z,1018.66
2016-12-09T07:33:49.734Z,1018.71
2016-12-09T07:34:59.692Z,1018.74
2016-12-09T07:36:09.356Z,1018.7
2016-12-09T07:37:19.675Z,1018.72
2016-12-09T07:38:30.245Z,1018.72
2016-12-09T07:39:40.258Z,1018.75
2016-12-09T07:40:50.536Z,1018.73
2016-12-09T07:42:00.811Z,1018.71
2016-12-09T07:43:11.150Z,1018.71
2016-12-09T07:44:21.140Z,1018.69
2016-12-09T07:45:31.122Z,1018.7
2016-12-09T07:46:41.109Z,1018.71
2016-12-09T07:47:51.115Z,1018.68
2016-12-09T07:49:01.393Z,1018.7
2016-12-09T07:50:11.972Z,1018.65
2016-12-09T07:51:22.251Z,1018.63
2016-12-09T07:52:31.918Z,1018.64
2016-12-09T07:53:42.203Z,1018.56
2016-12-09T07:54:52.483Z,1018.59
2016-12-09T07:56:02.463Z,1018.58
2016-12-09T07:57:12.448Z,1018.54
2016-12-09T07:58:22.423Z,1018.51
2016-12-09T07:59:32.928Z,1018.49
2016-12-09T08:00:43.533Z,1018.45
2016-12-09T08:01:53.501Z,1018.41
2016-12-09T08:03:03.469Z,1018.39
2016-12-09T08:04:13.436Z,1018.42
2016-12-09T08:05:23.572Z,1018.41
2016-12-09T08:06:33.846Z,1018.42
2016-12-09T08:07:44.151Z,1018.47
2016-12-09T08:08:54.119Z,1018.53
2016-12-09T08:10:04.077Z,1018.59
2016-12-09T08:11:14.039Z,1018.6
2016-12-09T08:12:24.611Z,1018.61
2016-12-09T08:13:34.893Z,1018.59
2016-12-09T08:14:44.850Z,1018.65
2016-12-09T08:15:55.123Z,1018.59
2016-12-09T08:17:05.407Z,1018.67
2016-12-09T08:18:15.409Z,1018.6
2016-12-09T08:19:25.706Z,1018.62
2016-12-09T08:20:35.972Z,1018.62
2016-12-09T08:21:45.984Z,1018.62
2016-12-09T08:22:55.633Z,1018.67
2016-12-09T08:24:05.923Z,1018.58
2016-12-09T08:25:16.468Z,1018.56
2016-12-09T08:26:26.440Z,1018.61
2016-12-09T08:27:36.701Z,1018.59
2016-12-09T08:28:47.015Z,1018.61
2016-12-09T08:29:57.604Z,1018.62
2016-12-09T08:31:07.882Z,1018.6
2016-12-09T08:32:17.837Z,1018.61
2016-12-09T08:33:27.485Z,1018.59
2016-12-09T08:34:37.770Z,1018.56
2016-12-09T08:35:48.337Z,1018.58
2016-12-09T08:36:58.292Z,1018.6
2016-12-09T08:38:08.564Z,1018.59
2016-12-09T08:39:18.851Z,1018.64
2016-12-09T08:40:28.823Z,1018.6
2016-12-09T08:41:39.108Z,1018.61
2016-12-09T08:42:49.377Z,1018.59
2016-12-09T08:43:59.649Z,1018.66
2016-12-09T08:45:09.633Z,1018.7
2016-12-09T08:46:19.921Z,1018.66
2016-12-09T08:47:29.608Z,1018.67
2016-12-09T08:48:39.912Z,1018.61
2016-12-09T08:49:49.883Z,1018.55
2016-12-09T08:50:59.845Z,1018.56
2016-12-09T08:52:10.438Z,1018.63
2016-12-09T08:53:20.709Z,1018.67
2016-12-09T08:54:33.247Z,1018.71
2016-12-09T08:55:43.224Z,1018.71
2016-12-09T08:56:53.228Z,1018.72
2016-12-09T08:58:03.507Z,1018.75
2016-12-09T08:59:13.481Z,1018.77
2016-12-09T09:00:23.802Z,1018.82
2016-12-09T09:01:33.786Z,1018.81
2016-12-09T09:02:43.455Z,1018.87
2016-12-09T09:03:54.064Z,1018.87
2016-12-09T09:05:04.348Z,1018.94
2016-12-09T09:06:14.323Z,1018.97
2016-12-09T09:07:24.270Z,1019.02
2016-12-09T09:08:33.920Z,1019.03
2016-12-09T09:09:44.493Z,1019.01
2016-12-09T09:10:54.778Z,1019.01
2016-12-09T09:12:04.746Z,1019.06
2016-12-09T09:13:15.066Z,1019.06
2016-12-09T09:14:25.325Z,1019.05
2016-12-09T09:15:35.591Z,1019.11
2016-12-09T09:16:45.859Z,1019.07
2016-12-09T09:17:55.828Z,1019.07
2016-12-09T09:19:05.998Z,1018.99
2016-12-09T09:20:15.974Z,1018.97
2016-12-09T09:21:26.586Z,1018.88
2016-12-09T09:22:36.558Z,1018.88
2016-12-09T09:23:46.541Z,1018.87
2016-12-09T09:24:56.529Z,1018.94
2016-12-09T09:26:06.491Z,1018.95
2016-12-09T09:27:17.080Z,1018.95
2016-12-09T09:28:25.841Z,1018.98
2016-12-09T09:29:35.796Z,1019.02
2016-12-09T09:30:45.451Z,1019.1
2016-12-09T09:31:55.141Z,1019.15
2016-12-09T09:33:05.771Z,1019.07
2016-12-09T09:34:15.466Z,1019.05
2016-12-09T09:35:25.787Z,1019.04
2016-12-09T09:36:35.758Z,1019.11
2016-12-09T09:37:45.108Z,1019.12
2016-12-09T09:38:55.703Z,1019.09
2016-12-09T09:40:06.009Z,1019.05
2016-12-09T09:41:15.675Z,1019.1
2016-12-09T09:42:25.960Z,1019.12
2016-12-09T09:43:35.909Z,1019.18
2016-12-09T09:44:46.497Z,1019.13
2016-12-09T09:45:56.484Z,1019.21
2016-12-09T09:47:06.466Z,1019.19
2016-12-09T09:48:16.821Z,1019.19
2016-12-09T09:49:27.106Z,1019.11
2016-12-09T09:50:37.830Z,1019.12
2016-12-09T09:51:48.129Z,1019.14
2016-12-09T09:52:58.141Z,1019.13
2016-12-09T09:54:08.143Z,1019.12
2016-12-09T09:55:18.476Z,1019.14
2016-12-09T09:56:29.094Z,1019.11
2016-12-09T09:57:39.130Z,1019.07
2016-12-09T09:58:49.129Z,1019.1
2016-12-09T09:59:59.148Z,1019.1
2016-12-09T10:01:08.829Z,1019.14
2016-12-09T10:02:19.114Z,1019.11
2016-12-09T10:03:29.398Z,1019.05
2016-12-09T10:04:39.079Z,1019.06
2016-12-09T10:05:49.053Z,1019.13
2016-12-09T10:06:59.049Z,1019.11
2016-12-09T10:08:09.037Z,1019.07
2016-12-09T10:09:19.028Z,1019.05
2016-12-09T10:10:29.020Z,1019.07
2016-12-09T10:11:38.916Z,1019.06
2016-12-09T10:12:48.897Z,1019.02
2016-12-09T10:13:59.466Z,1019.01
2016-12-09T10:15:09.121Z,1018.97
2016-12-09T10:16:18.795Z,1019.01
2016-12-09T10:17:28.456Z,1018.96
2016-12-09T10:18:38.446Z,1019.01
2016-12-09T10:19:49.041Z,1018.94
2016-12-09T10:20:59.021Z,1018.9
2016-12-09T10:22:09.326Z,1018.95
2016-12-09T10:23:19.012Z,1018.98
2016-12-09T10:24:29.000Z,1018.93
2016-12-09T10:25:39.594Z,1019
2016-12-09T10:26:49.893Z,1018.95
2016-12-09T10:28:00.196Z,1018.96
2016-12-09T10:29:10.175Z,1018.97
2016-12-09T10:30:20.150Z,1018.95
2016-12-09T10:31:30.421Z,1018.99
2016-12-09T10:32:39.809Z,1018.95
2016-12-09T10:33:49.800Z,1018.98
2016-12-09T10:34:59.795Z,1018.95
2016-12-09T10:36:10.089Z,1018.99
2016-12-09T10:37:20.074Z,1019.02
2016-12-09T10:38:30.082Z,1019
2016-12-09T10:39:40.357Z,1018.99
2016-12-09T10:40:50.635Z,1019.01
2016-12-09T10:42:00.604Z,1019
2016-12-09T10:43:10.885Z,1018.95
2016-12-09T10:44:20.864Z,1018.96
2016-12-09T10:45:30.517Z,1018.98
2016-12-09T10:46:40.796Z,1018.92
2016-12-09T10:47:51.069Z,1018.89
2016-12-09T10:49:01.680Z,1018.89
2016-12-09T10:50:11.650Z,1018.91
2016-12-09T10:51:21.321Z,1018.88
2016-12-09T10:52:30.982Z,1018.92
2016-12-09T10:53:40.960Z,1018.93
2016-12-09T10:54:51.230Z,1018.92
2016-12-09T10:56:01.545Z,1018.95
2016-12-09T10:57:11.501Z,1018.93
2016-12-09T10:58:21.479Z,1018.95
2016-12-09T10:59:31.846Z,1018.95
2016-12-09T11:00:42.426Z,1018.95
2016-12-09T11:01:52.409Z,1019.01
2016-12-09T11:03:02.381Z,1018.98
2016-12-09T11:04:11.852Z,1019.02
2016-12-09T11:05:21.861Z,1019
2016-12-09T11:06:32.150Z,1019.01
2016-12-09T11:07:42.128Z,1019.13
2016-12-09T11:08:52.409Z,1019.15
2016-12-09T11:10:02.681Z,1019.24
2016-12-09T11:11:12.956Z,1019.25
2016-12-09T11:12:22.912Z,1019.34
2016-12-09T11:13:33.184Z,1019.34
2016-12-09T11:14:43.520Z,1019.4
2016-12-09T11:15:53.817Z,1019.4
2016-12-09T11:17:04.105Z,1019.37
2016-12-09T11:18:14.693Z,1019.38
2016-12-09T11:19:24.037Z,1019.41
2016-12-09T11:20:34.015Z,1019.46
2016-12-09T11:21:44.300Z,1019.38
2016-12-09T11:22:54.261Z,1019.36
2016-12-09T11:24:04.850Z,1019.4
2016-12-09T11:25:15.154Z,1019.36
2016-12-09T11:26:24.808Z,1019.32
2016-12-09T11:27:34.479Z,1019.31
2016-12-09T11:28:44.796Z,1019.32
2016-12-09T11:29:55.064Z,1019.3
2016-12-09T11:31:05.064Z,1019.33
2016-12-09T11:32:15.363Z,1019.35
2016-12-09T11:33:25.667Z,1019.37
2016-12-09T11:34:36.027Z,1019.35
2016-12-09T11:35:46.338Z,1019.33
2016-12-09T11:36:56.318Z,1019.31
2016-12-09T11:38:06.596Z,1019.34
2016-12-09T11:39:16.564Z,1019.37
2016-12-09T11:40:26.833Z,1019.4
2016-12-09T11:41:37.112Z,1019.38
2016-12-09T11:42:46.804Z,1019.45
2016-12-09T11:43:56.794Z,1019.41
2016-12-09T11:45:06.789Z,1019.44
2016-12-09T11:46:16.763Z,1019.52
2016-12-09T11:47:27.042Z,1019.52
2016-12-09T11:48:37.336Z,1019.5
2016-12-09T11:49:47.643Z,1019.5
2016-12-09T11:50:57.963Z,1019.5
2016-12-09T11:52:07.965Z,1019.56
2016-12-09T11:53:17.621Z,1019.56
2016-12-09T11:54:27.001Z,1019.58
2016-12-09T11:55:36.658Z,1019.58
2016-12-09T11:56:46.645Z,1019.6
2016-12-09T11:57:56.625Z,1019.65
2016-12-09T11:59:07.230Z,1019.66
2016-12-09T12:00:17.515Z,1019.67
2016-12-09T12:01:27.791Z,1019.63
2016-12-09T12:02:37.771Z,1019.6
2016-12-09T12:03:47.752Z,1019.63
2016-12-09T12:04:58.328Z,1019.58
2016-12-09T12:06:08.600Z,1019.59
2016-12-09T12:07:18.571Z,1019.55
2016-12-09T12:08:28.872Z,1019.64
2016-12-09T12:09:39.161Z,1019.74
2016-12-09T12:10:49.749Z,1019.68
2016-12-09T12:12:00.021Z,1019.68
2016-12-09T12:13:10.294Z,1019.64
2016-12-09T12:14:20.274Z,1019.7
2016-12-09T12:15:30.576Z,1019.67
2016-12-09T12:16:41.161Z,1019.64
2016-12-09T12:17:51.433Z,1019.59
2016-12-09T12:19:01.390Z,1019.65
2016-12-09T12:20:11.698Z,1019.63
2016-12-09T12:21:21.359Z,1019.59
2016-12-09T12:22:32.040Z,1019.65
2016-12-09T12:23:41.993Z,1019.6
2016-12-09T12:24:51.914Z,1019.6
2016-12-09T12:26:01.561Z,1019.63
2016-12-09T12:27:11.230Z,1019.73
2016-12-09T12:28:21.573Z,1019.67
2016-12-09T12:29:31.257Z,1019.66
2016-12-09T12:30:40.929Z,1019.62
2016-12-09T12:31:50.603Z,1019.57
2016-12-09T12:33:00.282Z,1019.6
2016-12-09T12:34:10.596Z,1019.56
2016-12-09T12:35:20.897Z,1019.5
2016-12-09T12:36:30.903Z,1019.47
2016-12-09T12:37:41.195Z,1019.36
2016-12-09T12:38:51.801Z,1019.41
2016-12-09T12:40:01.789Z,1019.42
2016-12-09T12:41:12.063Z,1019.44
2016-12-09T12:42:22.569Z,1019.44
2016-12-09T12:43:32.542Z,1019.46
2016-12-09T12:44:43.212Z,1019.46
2016-12-09T12:45:53.487Z,1019.52
2016-12-09T12:47:03.459Z,1019.44
2016-12-09T12:48:13.718Z,1019.42
2016-12-09T12:49:23.995Z,1019.42
2016-12-09T12:50:34.601Z,1019.39
2016-12-09T12:51:44.255Z,1019.41
2016-12-09T12:52:54.608Z,1019.39
2016-12-09T12:54:04.903Z,1019.34
2016-12-09T12:55:14.898Z,1019.33
2016-12-09T12:56:25.499Z,1019.38
2016-12-09T12:57:35.160Z,1019.37
2016-12-09T12:58:45.131Z,1019.33
2016-12-09T12:59:55.105Z,1019.33
2016-12-09T13:01:05.390Z,1019.34
2016-12-09T13:02:15.348Z,1019.35
2016-12-09T13:03:25.643Z,1019.35
2016-12-09T13:04:35.333Z,1019.37
2016-12-09T13:05:45.316Z,1019.35
2016-12-09T13:06:55.309Z,1019.34
2016-12-09T13:08:05.576Z,1019.36
2016-12-09T13:09:15.554Z,1019.4
2016-12-09T13:10:25.250Z,1019.32
2016-12-09T13:11:35.256Z,1019.32
2016-12-09T13:12:44.606Z,1019.25
2016-12-09T13:13:54.865Z,1019.27
2016-12-09T13:15:05.124Z,1019.24
2016-12-09T13:16:15.412Z,1019.26
2016-12-09T13:17:25.694Z,1019.3
2016-12-09T13:18:35.979Z,1019.31
2016-12-09T13:19:46.233Z,1019.26
2016-12-09T13:20:56.220Z,1019.28
2016-12-09T13:22:06.509Z,1019.24
2016-12-09T13:23:16.804Z,1019.26
2016-12-09T13:24:27.076Z,1019.28
2016-12-09T13:25:37.051Z,1019.28
2016-12-09T13:26:47.034Z,1019.37
2016-12-09T13:27:57.313Z,1019.38
2016-12-09T13:29:07.338Z,1019.42
2016-12-09T13:30:17.351Z,1019.45
2016-12-09T13:31:27.665Z,1019.49
2016-12-09T13:32:37.963Z,1019.39
2016-12-09T13:33:48.258Z,1019.33
2016-12-09T13:34:58.247Z,1019.35
2016-12-09T13:36:08.558Z,1019.38
2016-12-09T13:37:18.835Z,1019.42
2016-12-09T13:38:28.798Z,1019.42
2016-12-09T13:39:38.807Z,1019.49
2016-12-09T13:40:48.782Z,1019.49
2016-12-09T13:41:59.370Z,1019.49
2016-12-09T13:43:09.035Z,1019.48
2016-12-09T13:44:19.639Z,1019.46
2016-12-09T13:45:29.310Z,1019.5
2016-12-09T13:46:39.287Z,1019.51
2016-12-09T13:47:49.860Z,1019.5
2016-12-09T13:49:00.131Z,1019.47
2016-12-09T13:50:10.615Z,1019.51
2016-12-09T13:51:20.269Z,1019.51
2016-12-09T13:52:29.633Z,1019.5
2016-12-09T13:53:39.895Z,1019.48
2016-12-09T13:54:50.197Z,1019.48
2016-12-09T13:56:00.174Z,1019.51
2016-12-09T13:57:10.142Z,1019.6
2016-12-09T13:58:20.430Z,1019.62
2016-12-09T13:59:31.008Z,1019.65
2016-12-09T14:00:41.287Z,1019.77
2016-12-09T14:01:51.249Z,1019.74
2016-12-09T14:03:01.536Z,1019.78
2016-12-09T14:04:11.818Z,1019.77
2016-12-09T14:05:22.388Z,1019.8
2016-12-09T14:06:32.675Z,1019.71
2016-12-09T14:07:42.958Z,1019.71
2016-12-09T14:08:52.932Z,1019.67
2016-12-09T14:10:03.217Z,1019.67
2016-12-09T14:11:13.817Z,1019.75